Time;durP1;ratioP1;P1;durP2;ratioP2;P2;SDS_P1;SDS_P2;PMS_P1;PMS_P2;Temp;Humidity;BMP_temperature;BMP_pressure;BME280_temperature;BME280_humidity;BME280_pressure;Samples;Min_cycle;Max_cycle;Signal;HPM_P1;HPM_P2
2021/03/22 00:01:14;;;;;;;33.80;18.62;;;;;;;0.07;75.52;100206.82;127989;1101;22501;-73
2021/03/22 00:03:44;;;;;;;36.05;19.48;;;;;;;0.04;75.69;100206.20;127966;1101;24357;-73
2021/03/22 00:06:12;;;;;;;33.80;19.87;;;;;;;0.04;75.38;100208.80;127935;1101;22485;-74
2021/03/22 00:08:40;;;;;;;33.78;20.00;;;;;;;0.03;75.92;100220.92;127930;1101;22847;-73
2021/03/22 00:11:09;;;;;;;31.85;18.77;;;;;;;0.02;76.03;100221.05;127934;1101;22500;-74
2021/03/22 00:13:37;;;;;;;35.50;19.10;;;;;;;0.02;75.98;100218.45;127935;1101;24578;-75
2021/03/22 00:16:08;;;;;;;37.38;20.08;;;;;;;0.01;76.00;100219.39;127936;1101;22509;-74
2021/03/22 00:18:39;;;;;;;38.02;21.33;;;;;;;0.00;76.02;100221.16;128056;1100;22601;-74
2021/03/22 00:21:10;;;;;;;39.27;22.73;;;;;;;0.00;75.84;100221.16;128188;1101;22508;-74
2021/03/22 00:23:38;;;;;;;40.80;22.17;;;;;;;-0.02;76.02;100217.83;128033;1101;22480;-74
2021/03/22 00:26:09;;;;;;;43.70;23.12;;;;;;;-0.04;75.78;100222.28;127924;1101;22605;-73
2021/03/22 00:28:40;;;;;;;40.43;20.48;;;;;;;-0.03;75.26;100231.75;127946;1099;22928;-73
2021/03/22 00:31:13;;;;;;;38.13;19.85;;;;;;;-0.06;75.47;100222.39;127971;1101;22483;-73
2021/03/22 00:33:43;;;;;;;30.85;18.65;;;;;;;-0.06;75.70;100229.36;127944;1101;22583;-73
2021/03/22 00:36:11;;;;;;;31.30;16.05;;;;;;;-0.07;76.01;100228.53;128272;1100;22572;-73
2021/03/22 00:38:39;;;;;;;27.65;15.10;;;;;;;-0.06;75.25;100231.95;128201;1101;22527;-73
2021/03/22 00:41:08;;;;;;;33.50;16.40;;;;;;;-0.07;76.13;100225.94;127944;1101;24337;-72
2021/03/22 00:43:37;;;;;;;33.13;16.95;;;;;;;-0.07;75.98;100220.74;128047;1101;24581;-72
2021/03/22 00:46:05;;;;;;;29.05;17.37;;;;;;;-0.05;75.98;100228.41;127944;1101;22506;-72
2021/03/22 00:48:35;;;;;;;36.40;18.77;;;;;;;-0.05;75.89;100231.84;127900;1101;22556;-72
2021/03/22 00:51:06;;;;;;;34.73;19.07;;;;;;;-0.05;75.18;100236.20;128045;1101;23349;-74
2021/03/22 00:53:36;;;;;;;30.80;17.17;;;;;;;-0.06;75.16;100229.36;128000;1101;22644;-72
2021/03/22 00:56:05;;;;;;;36.55;19.20;;;;;;;-0.05;76.02;100231.02;127973;1101;25161;-72
2021/03/22 00:58:33;;;;;;;38.45;20.50;;;;;;;-0.04;75.88;100230.06;127958;1101;22499;-72
2021/03/22 01:01:03;;;;;;;36.00;20.70;;;;;;;-0.01;75.66;100224.67;127959;1101;25317;-73
2021/03/22 01:03:34;;;;;;;37.83;18.48;;;;;;;0.02;75.33;100231.43;128026;1101;22610;-73
2021/03/22 01:06:06;;;;;;;32.00;17.80;;;;;;;0.05;75.78;100226.86;127933;1101;22487;-73
2021/03/22 01:08:38;;;;;;;32.80;18.43;;;;;;;0.07;75.61;100227.60;127915;1100;22576;-73
2021/03/22 01:11:20;;;;;;;34.45;19.52;;;;;;;0.11;75.28;100217.83;127926;1101;24231;-74
2021/03/22 01:13:52;;;;;;;26.05;16.20;;;;;;;0.15;75.44;100222.70;127959;1101;22938;-73
2021/03/22 01:16:34;;;;;;;30.45;17.20;;;;;;;0.20;75.42;100222.38;128163;1101;22484;-74
2021/03/22 01:19:23;;;;;;;30.32;17.25;;;;;;;0.19;75.12;100210.33;128132;1100;22532;-73
2021/03/22 01:21:59;;;;;;;32.40;18.32;;;;;;;0.23;75.33;100214.38;128009;1100;22505;-73
2021/03/22 01:24:33;;;;;;;28.52;16.48;;;;;;;0.25;75.17;100204.72;128199;1100;22930;-73
2021/03/22 01:27:07;;;;;;;26.10;16.30;;;;;;;0.29;75.82;100206.17;127983;1101;24616;-73
2021/03/22 01:29:40;;;;;;;28.70;16.93;;;;;;;0.32;75.46;100205.13;127923;1101;22532;-73
2021/03/22 01:32:12;;;;;;;35.00;19.23;;;;;;;0.34;75.19;100204.09;127964;1101;22627;-73
2021/03/22 01:34:40;;;;;;;31.45;18.23;;;;;;;0.37;74.97;100205.66;128055;1101;22491;-73
2021/03/22 01:37:08;;;;;;;28.80;18.02;;;;;;;0.38;75.13;100208.14;127927;1101;25135;-73
2021/03/22 01:39:39;;;;;;;28.60;18.80;;;;;;;0.40;75.49;100203.67;127957;1101;22499;-73
2021/03/22 01:42:36;;;;;;;32.67;19.05;;;;;;;0.41;74.45;100200.13;127946;1099;22580;-73
2021/03/22 01:45:09;;;;;;;32.40;19.87;;;;;;;0.42;74.51;100201.78;127342;1107;22539;-73
2021/03/22 01:47:38;;;;;;;32.08;19.45;;;;;;;0.44;75.38;100206.89;127439;1103;25219;-73
2021/03/22 01:50:28;;;;;;;35.58;18.25;;;;;;;0.44;74.55;100196.50;127973;1104;22635;-74
2021/03/22 01:52:59;;;;;;;34.60;21.57;;;;;;;0.44;74.30;100202.52;127478;1103;23172;-74
2021/03/22 01:55:28;;;;;;;31.27;19.55;;;;;;;0.42;74.45;100198.36;127920;1102;22507;-73
2021/03/22 01:57:56;;;;;;;36.20;21.45;;;;;;;0.42;74.61;100206.16;127377;1104;24699;-73
2021/03/22 02:00:28;;;;;;;36.55;22.82;;;;;;;0.43;74.49;100200.02;127503;1104;22618;-73
2021/03/22 02:03:12;;;;;;;37.03;20.88;;;;;;;0.43;74.91;100203.47;127600;1104;22545;-73
2021/03/22 02:05:49;;;;;;;35.30;19.55;;;;;;;0.45;75.18;100198.15;127489;1104;23012;-73
2021/03/22 02:08:29;;;;;;;33.55;19.73;;;;;;;0.49;74.56;100193.56;127465;1104;22624;-73
2021/03/22 02:10:58;;;;;;;29.37;19.17;;;;;;;0.50;75.06;100195.22;127929;1103;22671;-75
2021/03/22 02:13:35;;;;;;;33.80;19.70;;;;;;;0.53;74.23;100202.80;127410;1103;22518;-74
2021/03/22 02:16:33;;;;;;;32.08;18.40;;;;;;;0.53;74.72;100200.20;127429;1104;22592;-74
2021/03/22 02:19:40;;;;;;;34.70;19.25;;;;;;;0.50;74.18;100192.62;127477;1104;22491;-74
2021/03/22 02:22:56;;;;;;;34.33;18.62;;;;;;;0.49;74.29;100203.97;127683;1101;24581;-74
2021/03/22 02:25:54;;;;;;;29.87;18.87;;;;;;;0.48;74.14;100207.51;127478;1104;24464;-74
2021/03/22 02:28:22;;;;;;;32.48;18.12;;;;;;;0.46;74.81;100198.03;127399;1104;22551;-73
2021/03/22 02:31:21;;;;;;;26.62;18.57;;;;;;;0.48;74.68;100200.53;127865;1104;25132;-73
2021/03/22 02:34:02;;;;;;;31.07;19.35;;;;;;;0.45;74.62;100195.55;127844;1104;24606;-73
2021/03/22 02:36:52;;;;;;;33.23;19.27;;;;;;;0.44;74.04;100209.49;127435;1104;22645;-74
2021/03/22 02:39:20;;;;;;;31.80;19.50;;;;;;;0.44;74.10;100202.52;127919;1104;22666;-74
2021/03/22 02:41:58;;;;;;;30.30;18.40;;;;;;;0.44;74.17;100199.09;127462;1104;23385;-75
2021/03/22 02:44:36;;;;;;;32.98;21.12;;;;;;;0.42;74.54;100201.78;127472;1104;24443;-75
2021/03/22 02:47:24;;;;;;;35.75;19.82;;;;;;;0.42;73.90;100201.78;127460;1104;23052;-75
2021/03/22 02:49:57;;;;;;;33.65;19.80;;;;;;;0.42;74.35;100203.55;127915;1104;24755;-75
2021/03/22 02:53:06;;;;;;;;;;;;;;;0.38;73.70;100210.73;127445;1105;24198;-74
2021/03/22 02:56:14;;;;;;;36.93;22.10;;;;;;;0.34;74.18;100200.67;127903;1101;21370;-74
2021/03/22 02:59:00;;;;;;;33.55;19.48;;;;;;;0.34;74.45;100200.67;128156;1101;22561;-74
2021/03/22 03:01:40;;;;;;;33.65;20.17;;;;;;;0.35;74.63;100205.75;128250;1101;22584;-74
2021/03/22 03:04:12;;;;;;;35.35;20.90;;;;;;;0.38;74.76;100204.72;128001;1101;24382;-74
2021/03/22 03:06:47;;;;;;;35.40;22.55;;;;;;;0.39;74.90;100203.77;127996;1101;24594;-74
2021/03/22 03:09:18;;;;;;;37.15;20.52;;;;;;;0.40;73.87;100202.82;128010;1100;22511;-74
2021/03/22 03:11:47;;;;;;;36.17;22.67;;;;;;;0.40;74.26;100208.02;127932;1101;22529;-74
2021/03/22 03:14:16;;;;;;;35.60;21.75;;;;;;;0.40;74.17;100210.62;127922;1101;22641;-75
2021/03/22 03:16:44;;;;;;;35.23;21.97;;;;;;;0.39;73.70;100212.39;127941;1099;22490;-74
2021/03/22 03:19:13;;;;;;;33.28;21.17;;;;;;;0.40;74.55;100210.62;127973;1099;22605;-74
2021/03/22 03:21:41;;;;;;;33.50;21.68;;;;;;;0.40;73.88;100211.47;127925;1101;25155;-75
2021/03/22 03:24:10;;;;;;;32.23;20.95;;;;;;;0.38;74.25;100218.53;127905;1101;22504;-74
2021/03/22 03:26:39;;;;;;;37.40;21.05;;;;;;;0.39;74.35;100220.19;127928;1101;25097;-74
2021/03/22 03:29:07;;;;;;;35.78;22.20;;;;;;;0.38;73.94;100220.31;128177;1100;22499;-73
2021/03/22 03:31:36;;;;;;;35.60;22.50;;;;;;;0.39;74.58;100221.95;127912;1101;22476;-74
2021/03/22 03:34:06;;;;;;;34.85;22.45;;;;;;;0.39;73.89;100230.58;127957;1101;22538;-73
2021/03/22 03:36:34;;;;;;;33.28;21.65;;;;;;;0.40;74.40;100231.41;127882;1101;22480;-73
2021/03/22 03:39:06;;;;;;;33.85;21.85;;;;;;;0.42;74.11;100232.14;127943;1101;25104;-72
2021/03/22 03:41:39;;;;;;;38.92;23.77;;;;;;;0.43;74.38;100233.80;128048;1101;22495;-72
2021/03/22 03:44:11;;;;;;;37.45;21.42;;;;;;;0.43;74.47;100234.66;127919;1101;22639;-73
2021/03/22 03:46:40;;;;;;;35.90;22.67;;;;;;;0.43;73.84;100232.05;127941;1101;22499;-73
2021/03/22 03:49:09;;;;;;;36.35;23.52;;;;;;;0.44;74.25;100236.31;127961;1100;25610;-73
2021/03/22 03:51:39;;;;;;;37.10;23.25;;;;;;;0.44;74.63;100236.31;127897;1101;23415;-73
2021/03/22 03:54:10;;;;;;;36.83;23.25;;;;;;;0.44;73.75;100240.68;127931;1101;22520;-73
2021/03/22 03:56:39;;;;;;;38.67;23.38;;;;;;;0.44;74.35;100240.68;127945;1101;22994;-72
2021/03/22 03:59:07;;;;;;;35.50;22.73;;;;;;;0.44;74.26;100238.91;128047;1101;24532;-73
2021/03/22 04:01:36;;;;;;;37.15;24.70;;;;;;;0.45;73.54;100237.13;127867;1099;23427;-74
2021/03/22 04:04:06;;;;;;;39.65;23.47;;;;;;;0.45;73.53;100243.16;128179;1101;22501;-73
2021/03/22 04:06:35;;;;;;;41.88;24.70;;;;;;;0.46;73.70;100241.38;127935;1101;22506;-73
2021/03/22 04:09:09;;;;;;;42.27;25.92;;;;;;;0.46;73.82;100238.78;127977;1099;22501;-73
2021/03/22 04:11:45;;;;;;;37.78;25.68;;;;;;;0.47;74.01;100243.07;127974;1101;22528;-74
2021/03/22 04:14:22;;;;;;;46.73;28.42;;;;;;;0.46;73.50;100251.78;127978;1101;24337;-74
2021/03/22 04:16:51;;;;;;;50.15;28.47;;;;;;;0.46;74.33;100256.98;127897;1101;22702;-74
2021/03/22 04:19:20;;;;;;;39.95;27.07;;;;;;;0.45;73.74;100252.73;127987;1101;22497;-72
2021/03/22 04:21:50;;;;;;;55.17;32.45;;;;;;;0.43;73.79;100252.84;127950;1101;22622;-72
2021/03/22 04:24:19;;;;;;;58.48;34.53;;;;;;;0.43;73.84;100255.45;127935;1100;22504;-72
2021/03/22 04:26:47;;;;;;;68.07;38.45;;;;;;;0.40;74.23;100259.99;127928;1101;22582;-72
2021/03/22 04:29:15;;;;;;;72.15;39.88;;;;;;;0.38;74.36;100254.91;127918;1101;22529;-72
2021/03/22 04:31:44;;;;;;;62.73;37.13;;;;;;;0.35;74.36;100247.33;127977;1101;24597;-72
2021/03/22 04:34:13;;;;;;;53.25;35.23;;;;;;;0.36;73.94;100254.17;127988;1100;22495;-73
2021/03/22 04:36:42;;;;;;;57.55;34.23;;;;;;;0.36;74.66;100248.98;128041;1101;23391;-73
2021/03/22 04:39:10;;;;;;;53.48;32.48;;;;;;;0.37;74.73;100255.86;127948;1101;22921;-73
2021/03/22 04:41:39;;;;;;;57.20;32.67;;;;;;;0.40;73.99;100253.05;127968;1100;22495;-73
2021/03/22 04:44:09;;;;;;;49.25;31.25;;;;;;;0.41;74.62;100264.27;127912;1101;22603;-73
2021/03/22 04:46:40;;;;;;;60.25;33.40;;;;;;;0.43;73.91;100262.38;128010;1099;22485;-73
2021/03/22 04:49:09;;;;;;;44.38;31.60;;;;;;;0.44;74.36;100256.27;128211;1099;22601;-73
2021/03/22 04:51:37;;;;;;;48.23;31.07;;;;;;;0.45;74.38;100261.34;127967;1099;22508;-73
2021/03/22 04:54:05;;;;;;;52.43;32.58;;;;;;;0.46;73.92;100263.00;127918;1101;22482;-73
2021/03/22 04:56:34;;;;;;;50.12;32.90;;;;;;;0.45;74.40;100266.55;127965;1101;22523;-73
2021/03/22 04:59:03;;;;;;;61.17;36.30;;;;;;;0.44;74.37;100262.30;127926;1101;22622;-73
2021/03/22 05:01:31;;;;;;;59.27;34.15;;;;;;;0.43;73.71;100265.84;127958;1101;22671;-77
2021/03/22 05:04:00;;;;;;;64.58;37.08;;;;;;;0.44;74.33;100262.30;128060;1101;22527;-74
2021/03/22 05:06:28;;;;;;;64.27;39.65;;;;;;;0.45;74.34;100266.55;127945;1101;22483;-74
2021/03/22 05:08:58;;;;;;;61.48;36.75;;;;;;;0.45;74.15;100253.55;127936;1101;22590;-72
2021/03/22 05:11:27;;;;;;;54.93;33.85;;;;;;;0.48;74.44;100257.72;127956;1100;22573;-72
2021/03/22 05:13:55;;;;;;;48.02;32.58;;;;;;;0.49;74.76;100269.77;128029;1101;22491;-73
2021/03/22 05:16:23;;;;;;;58.40;37.10;;;;;;;0.51;74.69;100274.87;127982;1101;23556;-73
2021/03/22 05:18:52;;;;;;;59.70;36.05;;;;;;;0.54;74.03;100282.47;128213;1099;22532;-73
2021/03/22 05:21:20;;;;;;;56.42;34.40;;;;;;;0.56;74.91;100288.37;128187;1101;22616;-73
2021/03/22 05:23:48;;;;;;;58.78;35.98;;;;;;;0.60;74.25;100282.02;127985;1101;22839;-72
2021/03/22 05:26:16;;;;;;;50.80;33.88;;;;;;;0.63;74.13;100281.81;127965;1100;22522;-73
2021/03/22 05:28:44;;;;;;;57.08;34.03;;;;;;;0.68;74.08;100284.94;127973;1101;22497;-72
2021/03/22 05:31:13;;;;;;;58.23;38.17;;;;;;;0.72;75.02;100282.95;127972;1101;22559;-72
2021/03/22 05:33:41;;;;;;;55.25;37.63;;;;;;;0.76;74.95;100289.59;128007;1101;22875;-73
2021/03/22 05:36:09;;;;;;;56.65;39.33;;;;;;;0.77;74.10;100292.11;127964;1101;24616;-73
2021/03/22 05:38:38;;;;;;;64.03;40.75;;;;;;;0.78;74.50;100303.34;127974;1101;22491;-73
2021/03/22 05:41:14;;;;;;;63.38;40.63;;;;;;;0.78;74.94;100301.56;128155;1101;24370;-71
2021/03/22 05:43:42;;;;;;;69.25;42.50;;;;;;;0.80;73.80;100304.91;127973;1101;22519;-72
2021/03/22 05:46:45;;;;;;;69.75;43.40;;;;;;;0.84;74.43;100310.72;128167;1101;22502;-72
2021/03/22 05:49:48;;;;;;;75.97;44.83;;;;;;;0.86;74.21;100303.62;128223;1101;22492;-72
2021/03/22 05:52:48;;;;;;;;;;;;;;;0.85;73.96;100301.97;128253;1100;24638;-72
2021/03/22 05:55:38;;;;;;;98.97;50.20;;;;;;;0.86;74.52;100303.62;127853;1102;21311;-74
2021/03/22 05:59:07;;;;;;;88.12;46.88;;;;;;;0.93;75.06;100303.11;127891;1105;22682;-73
2021/03/22 06:01:46;;;;;;;85.55;43.50;;;;;;;1.03;74.60;100305.87;127920;1105;22605;-72
2021/03/22 06:04:42;;;;;;;66.45;37.75;;;;;;;1.10;74.43;100303.67;127853;1103;24613;-72
2021/03/22 06:07:19;;;;;;;65.62;36.95;;;;;;;1.13;74.90;100322.52;127880;1105;22721;-72
2021/03/22 06:09:58;;;;;;;63.35;37.25;;;;;;;1.17;74.73;100317.94;127867;1104;22503;-72
2021/03/22 06:12:29;;;;;;;49.58;32.05;;;;;;;1.14;73.87;100318.98;127883;1103;22506;-72
2021/03/22 06:15:18;;;;;;;52.17;33.35;;;;;;;1.17;73.84;100316.16;127892;1102;22617;-72
2021/03/22 06:18:16;;;;;;;61.73;35.60;;;;;;;1.23;74.46;100325.28;127853;1102;22492;-72
2021/03/22 06:20:44;;;;;;;53.23;32.60;;;;;;;1.35;74.25;100321.81;127449;1104;22623;-73
2021/03/22 06:23:35;;;;;;;64.82;33.28;;;;;;;1.47;73.91;100329.71;127539;1104;23418;-73
2021/03/22 06:26:33;;;;;;;43.65;28.92;;;;;;;1.59;73.59;100328.81;127470;1105;22793;-71
2021/03/22 06:29:27;;;;;;;52.83;32.95;;;;;;;1.68;73.59;100319.52;127900;1104;22583;-72
2021/03/22 06:32:13;;;;;;;50.88;30.37;;;;;;;1.78;74.17;100334.35;127741;1101;23176;-73
2021/03/22 06:35:05;;;;;;;47.20;31.02;;;;;;;1.88;73.76;100337.95;128176;1101;22622;-72
2021/03/22 06:37:37;;;;;;;46.15;31.77;;;;;;;2.01;73.48;100342.27;127986;1101;22526;-73
2021/03/22 06:40:24;;;;;;;49.42;30.62;;;;;;;2.10;73.41;100346.80;128040;1101;22836;-72
2021/03/22 06:43:21;;;;;;;50.17;31.05;;;;;;;2.19;73.40;100345.27;128203;1100;22571;-72
2021/03/22 06:46:08;;;;;;;52.40;37.25;;;;;;;2.28;73.19;100358.45;127928;1101;22527;-73
2021/03/22 06:48:38;;;;;;;51.28;33.35;;;;;;;2.40;72.24;100354.11;127963;1101;22507;-71
2021/03/22 06:51:10;;;;;;;39.05;26.97;;;;;;;2.53;72.36;100359.20;128004;1101;22605;-72
2021/03/22 06:53:51;;;;;;;43.20;28.38;;;;;;;2.64;72.66;100356.64;128165;1101;22592;-72
2021/03/22 06:56:36;;;;;;;40.55;25.65;;;;;;;2.76;72.45;100368.72;128015;1101;22506;-72
2021/03/22 06:59:19;;;;;;;40.78;27.37;;;;;;;2.89;72.10;100367.80;128193;1099;22572;-72
2021/03/22 07:01:49;;;;;;;;;;;;;;;3.05;72.48;100366.49;128076;1101;22528;-73
2021/03/22 07:04:29;;;;;;;38.65;26.55;;;;;;;3.17;72.43;100377.77;127986;1100;23064;-73
2021/03/22 07:07:24;;;;;;;32.17;21.77;;;;;;;3.32;71.05;100380.13;127932;1100;23650;-75
2021/03/22 07:09:59;;;;;;;34.45;22.70;;;;;;;3.32;70.34;100391.39;127967;1101;22522;-73
2021/03/22 07:12:39;;;;;;;32.90;22.13;;;;;;;3.42;70.63;100386.28;128317;1101;22494;-78
2021/03/22 07:15:23;;;;;;;33.25;22.93;;;;;;;3.68;70.55;100395.50;127966;1101;24353;-76
2021/03/22 07:18:03;;;;;;;32.08;21.48;;;;;;;3.95;70.94;100395.06;127991;1101;24613;-74
2021/03/22 07:20:59;;;;;;;34.25;21.07;;;;;;;4.09;70.07;100388.70;128223;1100;22602;-79
2021/03/22 07:23:55;;;;;;;34.38;21.12;;;;;;;4.24;68.88;100400.55;128196;1099;22654;-77
2021/03/22 07:26:58;;;;;;;27.25;17.92;;;;;;;4.36;68.49;100397.86;128212;1099;22491;-76
2021/03/22 07:29:52;;;;;;;33.00;25.95;;;;;;;4.42;67.74;100395.57;127930;1100;22611;-77
2021/03/22 07:32:57;;;;;;;24.77;18.50;;;;;;;4.58;68.31;100402.16;127971;1101;22502;-79
2021/03/22 07:36:22;;;;;;;25.88;17.32;;;;;;;4.90;68.51;100413.37;127946;1101;22494;-79
2021/03/22 07:39:29;;;;;;;30.80;17.12;;;;;;;5.16;67.27;100405.92;128198;1100;22499;-78
2021/03/22 07:42:18;;;;;;;25.00;17.42;;;;;;;5.34;66.37;100415.78;128231;1099;22632;-78
2021/03/22 07:45:10;;;;;;;30.52;17.95;;;;;;;5.40;65.39;100415.25;128233;1101;23265;-76
2021/03/22 07:48:16;;;;;;;26.45;16.35;;;;;;;5.48;65.31;100417.20;127920;1101;22507;-76
2021/03/22 07:51:21;;;;;;;25.12;17.30;;;;;;;5.63;65.49;100419.32;127900;1101;22680;-76
2021/03/22 07:54:27;;;;;;;24.70;16.50;;;;;;;5.75;64.56;100416.58;128210;1101;23469;-76
2021/03/22 07:57:38;;;;;;;24.02;14.60;;;;;;;5.89;64.24;100413.55;127934;1102;24603;-74
2021/03/22 08:00:49;;;;;;;23.87;15.18;;;;;;;6.01;63.42;100423.00;128068;1105;23339;-75
2021/03/22 08:03:54;;;;;;;21.67;15.43;;;;;;;6.06;62.59;100418.16;127508;1102;22517;-75
2021/03/22 08:06:52;;;;;;;23.62;16.32;;;;;;;6.15;62.88;100420.94;127452;1105;22533;-75
2021/03/22 08:10:03;;;;;;;22.30;15.68;;;;;;;6.24;62.12;100428.81;127528;1104;24670;-75
2021/03/22 08:12:46;;;;;;;23.77;16.97;;;;;;;6.30;62.02;100430.06;127592;1105;22593;-75
2021/03/22 08:15:38;;;;;;;25.30;17.25;;;;;;;6.42;61.62;100431.56;127466;1104;25186;-79
2021/03/22 08:18:31;;;;;;;28.80;18.48;;;;;;;6.63;61.33;100435.82;127339;1106;22554;-75
2021/03/22 08:21:11;;;;;;;25.23;18.02;;;;;;;6.74;60.83;100438.31;127373;1107;22538;-74
2021/03/22 08:24:22;;;;;;;29.57;18.83;;;;;;;6.77;60.58;100443.28;127419;1106;22542;-74
2021/03/22 08:26:58;;;;;;;25.52;17.42;;;;;;;6.71;59.71;100441.22;127087;1106;24687;-75
2021/03/22 08:29:31;;;;;;;34.73;22.50;;;;;;;6.68;60.02;100450.20;126994;1108;22507;-74
2021/03/22 08:32:33;;;;;;;25.02;19.55;;;;;;;6.77;60.26;100451.16;127357;1106;22545;-75
2021/03/22 08:35:31;;;;;;;26.80;18.57;;;;;;;6.99;59.88;100456.06;127484;1104;22580;-77
2021/03/22 08:38:20;;;;;;;28.73;20.30;;;;;;;7.00;59.10;100451.67;127861;1102;22811;-75
2021/03/22 08:40:58;;;;;;;27.67;19.48;;;;;;;7.08;59.55;100447.34;127890;1105;22478;-75
2021/03/22 08:43:52;;;;;;;29.63;21.27;;;;;;;7.30;59.64;100450.61;127569;1105;22510;-76
2021/03/22 08:47:06;;;;;;;26.77;19.02;;;;;;;7.59;59.12;100460.16;127869;1102;22539;-75
2021/03/22 08:49:58;;;;;;;31.12;19.48;;;;;;;8.16;59.57;100447.63;127351;1107;22696;-76
2021/03/22 08:52:36;;;;;;;24.20;17.73;;;;;;;8.50;57.97;100450.45;127579;1106;24594;-75
2021/03/22 08:55:12;;;;;;;25.68;16.93;;;;;;;8.59;56.35;100452.16;127468;1104;22545;-75
2021/03/22 08:58:20;;;;;;;23.45;16.73;;;;;;;8.65;56.48;100455.99;127487;1105;22520;-76
2021/03/22 09:00:51;;;;;;;23.50;16.57;;;;;;;9.14;56.81;100454.52;127868;1104;22638;-77
2021/03/22 09:03:33;;;;;;;27.80;17.27;;;;;;;9.66;55.93;100446.55;127592;1104;22664;-76
2021/03/22 09:06:27;;;;;;;22.30;16.02;;;;;;;9.67;53.78;100455.28;127947;1105;22639;-77
2021/03/22 09:09:05;;;;;;;21.90;16.02;;;;;;;9.54;53.21;100460.99;127629;1105;22719;-76
2021/03/22 09:11:47;;;;;;;21.70;15.95;;;;;;;9.39;52.87;100460.74;127909;1103;22548;-76
2021/03/22 09:14:15;;;;;;;22.70;15.17;;;;;;;9.23;52.12;100452.77;127878;1104;22548;-76
2021/03/22 09:16:51;;;;;;;23.18;16.07;;;;;;;9.37;53.05;100462.73;127934;1103;22510;-78
2021/03/22 09:19:30;;;;;;;19.57;12.95;;;;;;;9.66;53.04;100466.80;127913;1103;22746;-76
2021/03/22 09:22:18;;;;;;;21.40;13.30;;;;;;;10.08;52.85;100463.31;127577;1104;23555;-76
2021/03/22 09:24:49;;;;;;;23.05;14.65;;;;;;;10.64;52.87;100463.57;127892;1104;22750;-76
2021/03/22 09:27:18;;;;;;;21.03;15.30;;;;;;;11.25;52.48;100467.45;127760;1101;22605;-74
2021/03/22 09:30:04;;;;;;;24.23;13.90;;;;;;;11.62;50.08;100463.36;127917;1104;22508;-76
2021/03/22 09:32:34;;;;;;;21.93;11.55;;;;;;;12.30;50.30;100461.88;127918;1102;22542;-76
2021/03/22 09:35:06;;;;;;;23.70;12.35;;;;;;;12.80;48.25;100468.44;127989;1101;22548;-75
2021/03/22 09:38:08;;;;;;;16.48;11.03;;;;;;;13.24;47.61;100460.56;128077;1100;22593;-76
2021/03/22 09:40:36;;;;;;;19.35;9.63;;;;;;;13.53;45.77;100462.41;127439;1105;22518;-76
2021/03/22 09:43:11;;;;;;;12.20;7.50;;;;;;;13.83;44.62;100465.84;127440;1104;25274;-76
2021/03/22 09:45:55;;;;;;;17.67;11.93;;;;;;;14.24;43.98;100470.58;127893;1104;22515;-77
2021/03/22 09:48:33;;;;;;;17.92;10.18;;;;;;;14.57;42.33;100483.41;127920;1105;24105;-78
2021/03/22 09:51:04;;;;;;;26.97;12.90;;;;;;;14.86;41.85;100482.44;127879;1103;22489;-77
2021/03/22 09:53:56;;;;;;;24.07;11.85;;;;;;;15.13;41.36;100487.92;127891;1103;22801;-77
2021/03/22 09:56:32;;;;;;;17.10;10.30;;;;;;;15.27;40.72;100493.16;127872;1103;24685;-77
2021/03/22 09:59:38;;;;;;;27.15;11.63;;;;;;;15.54;39.94;100488.80;127927;1102;22621;-77
2021/03/22 10:02:28;;;;;;;20.17;9.95;;;;;;;15.62;38.95;100486.99;127962;1103;24574;-77
2021/03/22 10:05:14;;;;;;;16.17;9.05;;;;;;;15.61;38.32;100485.36;128015;1103;22591;-76
2021/03/22 10:08:10;;;;;;;28.92;9.88;;;;;;;15.71;38.46;100485.84;127887;1104;22972;-76
2021/03/22 10:10:58;;;;;;;18.57;7.97;;;;;;;16.08;37.98;100486.39;127364;1106;22598;-76
2021/03/22 10:13:42;;;;;;;14.77;7.57;;;;;;;16.51;37.41;100488.75;127482;1107;22551;-76
2021/03/22 10:16:17;;;;;;;13.20;8.45;;;;;;;16.71;36.71;100489.58;127441;1107;23003;-76
2021/03/22 10:19:13;;;;;;;13.28;7.97;;;;;;;16.58;35.76;100493.06;127512;1105;22512;-75
2021/03/22 10:22:17;;;;;;;23.20;7.67;;;;;;;16.36;34.83;100483.58;127552;1105;24765;-75
2021/03/22 10:25:16;;;;;;;12.65;7.20;;;;;;;16.46;35.14;100481.34;127634;1104;22801;-74
2021/03/22 10:27:44;;;;;;;17.10;7.80;;;;;;;16.71;34.28;100492.25;127863;1103;24395;-74
2021/03/22 10:30:24;;;;;;;18.12;7.65;;;;;;;16.44;32.77;100486.07;127506;1105;25083;-76
2021/03/22 10:32:55;;;;;;;9.78;6.40;;;;;;;16.05;32.57;100486.80;127430;1105;24809;-74
2021/03/22 10:35:47;;;;;;;7.53;5.35;;;;;;;16.04;32.96;100485.98;127438;1105;24607;-75
2021/03/22 10:38:30;;;;;;;12.28;6.50;;;;;;;16.22;33.35;100482.73;127440;1103;23346;-75
2021/03/22 10:41:00;;;;;;;7.55;5.97;;;;;;;16.63;32.37;100477.28;127448;1102;22679;-74
2021/03/22 10:43:35;;;;;;;7.08;5.03;;;;;;;16.98;31.71;100478.94;127491;1105;22510;-75
2021/03/22 10:46:23;;;;;;;15.32;6.28;;;;;;;17.31;30.98;100481.56;127497;1105;25190;-75
2021/03/22 10:49:24;;;;;;;11.12;5.28;;;;;;;17.82;31.00;100484.30;127850;1101;22532;-75
2021/03/22 10:51:56;;;;;;;8.30;5.85;;;;;;;18.25;30.17;100478.33;127882;1104;22658;-75
2021/03/22 10:54:44;;;;;;;9.80;5.37;;;;;;;18.60;28.69;100485.93;127897;1102;22491;-75
2021/03/22 10:57:26;;;;;;;11.18;4.72;;;;;;;18.76;27.29;100484.58;127937;1101;22568;-76
2021/03/22 11:00:00;;;;;;;5.12;3.20;;;;;;;18.54;27.43;100481.44;127937;1104;22504;-75
2021/03/22 11:02:44;;;;;;;8.43;4.12;;;;;;;18.18;27.11;100482.89;127970;1104;24723;-75
2021/03/22 11:05:16;;;;;;;6.70;4.22;;;;;;;17.48;26.51;100472.06;128004;1104;22669;-75
2021/03/22 11:08:02;;;;;;;;;;;;;;;16.66;26.82;100468.88;127936;1103;24451;-75
2021/03/22 11:10:34;;;;;;;15.65;9.40;;;;;;;15.89;27.00;100474.64;127885;1103;21585;-76
2021/03/22 11:13:04;;;;;;;8.70;3.50;;;;;;;15.26;27.36;100466.72;127953;1103;22677;-75
2021/03/22 11:15:37;;;;;;;9.38;3.02;;;;;;;14.44;27.45;100476.09;127897;1104;22537;-76
2021/03/22 11:18:15;;;;;;;6.05;2.02;;;;;;;13.79;28.01;100479.66;128056;1103;23000;-75
2021/03/22 11:20:51;;;;;;;12.80;3.98;;;;;;;13.17;28.04;100479.01;127930;1102;22494;-75
2021/03/22 11:23:44;;;;;;;6.45;3.10;;;;;;;12.50;28.78;100478.95;127962;1101;22495;-75
2021/03/22 11:26:17;;;;;;;7.65;3.83;;;;;;;11.71;29.71;100484.32;128091;1103;22508;-75
2021/03/22 11:28:46;;;;;;;14.83;4.83;;;;;;;11.21;30.44;100490.76;128064;1101;22594;-74
2021/03/22 11:31:37;;;;;;;10.80;5.25;;;;;;;10.80;31.15;100487.35;127946;1103;22538;-75
2021/03/22 11:34:16;;;;;;;10.82;5.17;;;;;;;10.41;32.09;100490.63;127951;1100;22498;-74
2021/03/22 11:36:45;;;;;;;10.08;5.40;;;;;;;10.14;33.02;100483.78;127963;1103;22542;-74
2021/03/22 11:39:18;;;;;;;7.45;4.00;;;;;;;10.08;33.44;100473.86;127962;1101;23432;-74
2021/03/22 11:41:52;;;;;;;9.50;4.65;;;;;;;10.04;33.99;100473.36;127898;1102;22615;-75
2021/03/22 11:44:32;;;;;;;8.47;4.27;;;;;;;10.05;34.06;100471.55;128191;1100;22539;-74
2021/03/22 11:47:35;;;;;;;8.13;4.20;;;;;;;10.05;33.85;100468.91;127921;1101;22580;-74
2021/03/22 11:50:25;;;;;;;;;;;;;;;9.92;33.73;100465.91;128196;1100;22481;-75
2021/03/22 11:53:24;;;;;;;6.30;3.10;;;;;;;9.71;34.05;100477.71;127977;1101;21307;-75
2021/03/22 11:55:57;;;;;;;6.08;3.45;;;;;;;9.58;34.07;100472.05;128021;1099;22503;-76
2021/03/22 11:58:37;;;;;;;8.25;3.70;;;;;;;9.47;34.08;100474.98;127991;1101;22620;-75
2021/03/22 12:01:27;;;;;;;16.73;5.08;;;;;;;9.38;34.42;100474.09;127946;1101;23211;-75
2021/03/22 12:04:04;;;;;;;11.70;3.72;;;;;;;9.22;34.15;100474.83;127936;1101;23045;-76
2021/03/22 12:06:52;;;;;;;5.17;3.27;;;;;;;9.17;34.54;100474.48;127918;1101;24587;-76
2021/03/22 12:09:22;;;;;;;9.53;4.42;;;;;;;9.12;34.70;100484.65;127958;1101;22651;-75